Time;durP1;ratioP1;P1;durP2;ratioP2;P2;SDS_P1;SDS_P2;PMS_P1;PMS_P2;Temp;Humidity;BMP_temperature;BMP_pressure;BME280_temperature;BME280_humidity;BME280_pressure;Samples;Min_cycle;Max_cycle;Signal;HPM_P1;HPM_P2
2023/03/24 00:02:15;;;;;;;1.70;1.52;;;18.50;53.30;;;;;;4725011;30;20201;-86
2023/03/24 00:04:49;;;;;;;2.65;1.85;;;18.50;53.30;;;;;;4722994;30;20664;-86
2023/03/24 00:07:22;;;;;;;3.47;1.92;;;18.60;53.30;;;;;;4721626;30;20271;-88
2023/03/24 00:09:56;;;;;;;2.33;1.77;;;18.50;53.30;;;;;;4795038;29;20198;-87
2023/03/24 00:12:37;;;;;;;2.00;1.80;;;18.50;53.30;;;;;;4802566;29;20214;-87
2023/03/24 00:15:11;;;;;;;3.15;1.75;;;18.50;53.40;;;;;;4788532;29;20186;-88
2023/03/24 00:17:48;;;;;;;2.20;1.80;;;18.50;53.40;;;;;;4788727;29;20205;-87
2023/03/24 00:20:23;;;;;;;3.03;1.73;;;18.50;53.40;;;;;;4802755;29;20191;-88
2023/03/24 00:22:57;;;;;;;1.50;1.40;;;18.50;53.40;;;;;;4803739;29;20200;-87
2023/03/24 00:25:35;;;;;;;1.75;1.52;;;18.50;53.40;;;;;;4803230;29;20210;-88
2023/03/24 00:28:10;;;;;;;2.55;2.00;;;18.50;53.60;;;;;;4802521;29;20701;-87
2023/03/24 00:30:51;;;;;;;2.30;1.90;;;18.50;53.40;;;;;;4802647;29;20581;-87
2023/03/24 00:33:18;;;;;;;2.00;1.80;;;18.50;53.50;;;;;;4784777;30;20255;-87
2023/03/24 00:35:57;;;;;;;1.60;1.50;;;18.50;53.50;;;;;;4751476;30;20235;-87
2023/03/24 00:38:28;;;;;;;1.83;1.60;;;18.50;54.10;;;;;;4766657;30;20200;-87
2023/03/24 00:41:01;;;;;;;2.10;1.90;;;18.50;53.50;;;;;;4766259;30;20227;-87
2023/03/24 00:43:30;;;;;;;2.15;1.88;;;18.50;53.60;;;;;;4777426;30;20192;-87
2023/03/24 00:46:13;;;;;;;2.30;1.80;;;18.40;54.30;;;;;;4783775;30;20230;-87
2023/03/24 00:48:50;;;;;;;3.88;1.73;;;18.40;53.50;;;;;;4783811;30;20190;-87
2023/03/24 00:51:23;;;;;;;2.45;2.05;;;18.40;53.60;;;;;;4769616;30;20190;-87
2023/03/24 00:54:00;;;;;;;2.10;1.70;;;18.30;53.50;;;;;;4763773;30;20224;-88
2023/03/24 00:56:30;;;;;;;2.50;1.80;;;18.30;53.60;;;;;;4720078;30;20192;-87
2023/03/24 00:59:01;;;;;;;2.67;1.55;;;18.30;53.60;;;;;;4748982;30;20189;-88
2023/03/24 01:01:33;;;;;;;2.20;1.90;;;18.40;53.60;;;;;;4712991;30;20209;-87
2023/03/24 01:04:09;;;;;;;2.10;1.70;;;18.40;54.30;;;;;;4690099;30;20199;-87
2023/03/24 01:06:36;;;;;;;1.92;1.60;;;18.40;53.70;;;;;;4692687;30;20203;-87
2023/03/24 01:09:05;;;;;;;3.20;1.77;;;18.40;53.60;;;;;;4678751;30;20195;-87
2023/03/24 01:11:46;;;;;;;4.00;1.77;;;18.40;53.60;;;;;;4710035;30;20187;-87
2023/03/24 01:14:20;;;;;;;2.10;1.80;;;18.40;53.70;;;;;;4696753;30;20308;-87
2023/03/24 01:16:55;;;;;;;2.63;1.75;;;18.30;53.70;;;;;;4703816;30;20209;-87
2023/03/24 01:19:25;;;;;;;3.35;2.00;;;18.50;53.90;;;;;;4706578;30;20218;-87
2023/03/24 01:22:05;;;;;;;1.85;1.70;;;18.30;53.90;;;;;;4736930;30;20199;-87
2023/03/24 01:24:39;;;;;;;2.90;1.77;;;18.30;53.90;;;;;;4710431;30;20229;-87
2023/03/24 01:27:16;;;;;;;2.03;1.80;;;18.30;53.90;;;;;;4727744;30;20263;-87
2023/03/24 01:29:50;;;;;;;2.88;1.95;;;18.30;53.90;;;;;;4709628;30;20210;-87
2023/03/24 01:32:18;;;;;;;3.15;1.80;;;18.30;53.90;;;;;;4664373;30;20223;-87
2023/03/24 01:34:44;;;;;;;2.42;1.70;;;18.30;53.90;;;;;;4731900;30;20282;-87
2023/03/24 01:37:22;;;;;;;2.38;1.85;;;18.40;53.90;;;;;;4741908;30;20240;-87
2023/03/24 01:39:52;;;;;;;1.95;1.75;;;18.30;53.90;;;;;;4681328;30;20199;-87
2023/03/24 01:42:26;;;;;;;2.90;1.88;;;18.30;53.90;;;;;;4700451;30;20196;-87
2023/03/24 01:44:56;;;;;;;2.35;1.80;;;18.30;53.90;;;;;;4675591;30;20238;-87
2023/03/24 01:47:35;;;;;;;2.95;2.20;;;18.30;53.90;;;;;;4689885;30;20196;-87
2023/03/24 01:50:06;;;;;;;2.40;2.00;;;18.30;53.90;;;;;;4703645;30;20199;-87
2023/03/24 01:52:43;;;;;;;2.70;1.77;;;18.30;53.90;;;;;;4689952;30;20243;-87
2023/03/24 01:55:19;;;;;;;3.17;1.88;;;18.30;53.90;;;;;;4694817;30;20199;-87
2023/03/24 01:57:50;;;;;;;2.15;1.70;;;18.30;53.90;;;;;;4713963;30;20201;-87
2023/03/24 02:00:23;;;;;;;2.80;1.70;;;18.30;54.00;;;;;;4725578;30;20232;-88
2023/03/24 02:02:57;;;;;;;1.73;1.63;;;18.30;53.90;;;;;;4737105;30;20258;-88
2023/03/24 02:05:34;;;;;;;2.17;1.80;;;18.30;53.90;;;;;;4694377;30;20818;-88
2023/03/24 02:08:14;;;;;;;2.33;1.30;;;18.30;54.00;;;;;;4751636;30;20208;-87
2023/03/24 02:10:56;;;;;;;2.92;1.90;;;18.30;53.90;;;;;;4722651;30;20210;-87
2023/03/24 02:13:30;;;;;;;2.20;1.88;;;18.30;53.90;;;;;;4723240;30;20185;-87
2023/03/24 02:16:47;;;;;;;4.03;1.80;;;18.30;54.00;;;;;;4721887;30;20192;-87
2023/03/24 02:19:37;;;;;;;1.83;1.67;;;18.30;53.90;;;;;;4765836;30;20264;-87
2023/03/24 02:22:41;;;;;;;2.80;1.88;;;18.30;54.30;;;;;;4765673;30;20176;-87
2023/03/24 02:25:29;;;;;;;3.55;1.80;;;18.30;54.00;;;;;;4764503;29;20223;-87
2023/03/24 02:28:36;;;;;;;2.13;1.65;;;18.30;53.90;;;;;;4817009;29;20190;-87
2023/03/24 02:31:22;;;;;;;2.25;1.70;;;18.30;54.00;;;;;;4796410;29;20190;-87
2023/03/24 02:34:26;;;;;;;2.45;1.80;;;18.30;53.90;;;;;;4828786;29;20221;-87
2023/03/24 02:37:31;;;;;;;2.42;1.70;;;18.20;53.90;;;;;;4831924;29;20220;-87
2023/03/24 02:40:21;;;;;;;2.00;1.75;;;18.20;53.90;;;;;;4858315;29;20172;-87
2023/03/24 02:43:20;;;;;;;2.30;1.90;;;18.20;54.10;;;;;;4844470;29;20170;-87
2023/03/24 02:45:58;;;;;;;2.30;2.03;;;18.20;54.10;;;;;;4824907;29;20231;-87
2023/03/24 02:48:38;;;;;;;2.13;1.88;;;18.20;54.20;;;;;;4786033;30;20254;-87
2023/03/24 02:51:16;;;;;;;3.50;1.90;;;18.20;54.30;;;;;;4786134;30;20182;-87
2023/03/24 02:54:18;;;;;;;3.33;1.83;;;18.20;54.30;;;;;;4757398;30;20232;-87
2023/03/24 02:57:12;;;;;;;2.72;1.75;;;18.10;54.30;;;;;;4786785;30;20643;-88
2023/03/24 02:59:52;;;;;;;1.75;1.65;;;18.10;54.40;;;;;;4764832;30;20196;-87
2023/03/24 03:02:22;;;;;;;2.72;1.90;;;18.20;54.30;;;;;;4750305;30;20231;-87
2023/03/24 03:04:55;;;;;;;2.10;1.70;;;18.10;54.30;;;;;;4765374;30;20664;-87
2023/03/24 03:07:24;;;;;;;2.72;1.90;;;18.20;54.30;;;;;;4714812;30;20194;-87
2023/03/24 03:10:15;;;;;;;2.50;1.90;;;18.10;54.40;;;;;;4744737;30;20222;-87
2023/03/24 03:12:52;;;;;;;2.20;1.90;;;18.10;54.30;;;;;;4743401;30;20177;-87
2023/03/24 03:15:27;;;;;;;2.38;1.70;;;18.10;54.30;;;;;;4700809;30;20193;-87
2023/03/24 03:18:08;;;;;;;2.05;1.77;;;18.10;54.30;;;;;;4701448;30;20198;-87
2023/03/24 03:20:47;;;;;;;3.50;2.00;;;18.10;54.20;;;;;;4745827;30;20194;-87
2023/03/24 03:23:24;;;;;;;2.85;2.08;;;18.10;54.30;;;;;;4746510;30;20284;-87
2023/03/24 03:26:03;;;;;;;3.05;1.70;;;18.10;54.40;;;;;;4732891;30;20231;-87
2023/03/24 03:28:37;;;;;;;1.65;1.50;;;18.10;55.00;;;;;;4733116;30;20193;-87
2023/03/24 03:31:25;;;;;;;2.22;1.85;;;18.10;54.40;;;;;;4736077;30;20246;-87
2023/03/24 03:33:58;;;;;;;2.15;1.55;;;18.00;54.30;;;;;;4738002;30;20215;-87
2023/03/24 03:36:37;;;;;;;2.35;1.95;;;18.10;54.40;;;;;;4736598;30;20789;-87
2023/03/24 03:39:14;;;;;;;3.55;1.60;;;18.10;54.30;;;;;;4799727;29;20195;-86
2023/03/24 03:41:59;;;;;;;3.33;1.88;;;18.10;54.40;;;;;;4768080;30;20206;-87
2023/03/24 03:44:34;;;;;;;2.65;1.80;;;18.00;54.40;;;;;;4767496;30;20286;-87
2023/03/24 03:47:12;;;;;;;2.03;1.63;;;18.10;54.50;;;;;;4752990;30;20187;-87
2023/03/24 03:49:40;;;;;;;2.45;1.77;;;18.10;54.40;;;;;;4746171;30;20186;-87
2023/03/24 03:52:11;;;;;;;3.25;1.73;;;18.10;54.50;;;;;;4743868;30;20198;-87
2023/03/24 03:54:37;;;;;;;2.38;1.65;;;18.10;54.40;;;;;;4738877;30;20215;-87
2023/03/24 03:57:10;;;;;;;1.90;1.58;;;18.00;54.40;;;;;;4749765;30;20284;-87
2023/03/24 03:59:46;;;;;;;1.90;1.70;;;18.10;54.50;;;;;;4718017;30;20220;-87
2023/03/24 04:02:52;;;;;;;3.65;1.98;;;18.10;54.40;;;;;;4717196;30;20260;-87
2023/03/24 04:05:37;;;;;;;2.97;1.77;;;18.10;54.40;;;;;;4747267;30;20221;-87
2023/03/24 04:08:24;;;;;;;2.30;1.73;;;18.00;54.50;;;;;;4718264;30;20186;-87
2023/03/24 04:11:31;;;;;;;2.00;1.48;;;18.10;54.40;;;;;;4746529;30;20204;-86
2023/03/24 04:14:29;;;;;;;2.33;1.80;;;18.10;54.50;;;;;;4767637;30;20552;-87
2023/03/24 04:17:15;;;;;;;3.20;1.70;;;18.00;54.40;;;;;;4767816;30;20202;-87
2023/03/24 04:20:05;;;;;;;2.80;1.73;;;18.10;54.40;;;;;;4754382;30;20200;-87
2023/03/24 04:23:01;;;;;;;2.58;1.70;;;18.10;54.30;;;;;;4752644;30;20235;-87
2023/03/24 04:25:43;;;;;;;1.88;1.63;;;18.10;54.50;;;;;;4763436;30;20258;-87
2023/03/24 04:28:28;;;;;;;2.05;1.60;;;18.10;54.50;;;;;;4744593;30;20218;-87
2023/03/24 04:31:22;;;;;;;2.45;1.90;;;18.00;54.60;;;;;;4766975;30;20271;-86
2023/03/24 04:34:01;;;;;;;3.03;1.73;;;18.00;54.40;;;;;;4753830;30;20188;-87
2023/03/24 04:37:01;;;;;;;2.20;1.90;;;18.00;54.60;;;;;;4755551;30;20227;-86
2023/03/24 04:39:57;;;;;;;2.50;1.73;;;18.10;54.60;;;;;;4797020;30;20201;-86
2023/03/24 04:42:34;;;;;;;4.53;1.67;;;18.00;54.60;;;;;;4763441;30;20189;-86
2023/03/24 04:45:12;;;;;;;1.92;1.50;;;18.00;54.60;;;;;;4734656;30;20621;-86
2023/03/24 04:47:55;;;;;;;2.00;1.65;;;18.00;54.50;;;;;;4733827;30;20215;-86
2023/03/24 04:50:39;;;;;;;1.92;1.70;;;18.00;54.60;;;;;;4736751;30;20674;-86
2023/03/24 04:53:09;;;;;;;2.40;1.70;;;18.00;54.50;;;;;;4745611;30;20197;-86
2023/03/24 04:56:00;;;;;;;2.67;1.98;;;18.00;54.60;;;;;;4760839;30;20201;-87
2023/03/24 04:58:32;;;;;;;2.35;1.80;;;18.00;54.50;;;;;;4731185;30;20197;-86
2023/03/24 05:01:05;;;;;;;3.42;2.10;;;18.00;54.60;;;;;;4745140;30;20276;-86
2023/03/24 05:03:38;;;;;;;2.15;1.73;;;18.00;54.70;;;;;;4736613;30;20193;-86
2023/03/24 05:06:04;;;;;;;2.03;1.55;;;18.00;54.60;;;;;;4751066;30;20296;-86
2023/03/24 05:08:36;;;;;;;2.22;1.73;;;18.00;54.60;;;;;;4766556;30;20275;-87
2023/03/24 05:11:05;;;;;;;2.00;1.60;;;18.00;54.60;;;;;;4766033;30;20223;-86
2023/03/24 05:13:39;;;;;;;2.55;1.80;;;18.10;54.70;;;;;;4765775;30;20199;-87
2023/03/24 05:16:18;;;;;;;2.15;1.70;;;18.00;54.80;;;;;;4765770;30;20223;-87
2023/03/24 05:18:50;;;;;;;2.22;1.95;;;18.00;54.70;;;;;;4744232;30;20204;-88
2023/03/24 05:21:23;;;;;;;1.92;1.50;;;18.00;54.80;;;;;;4729975;30;20190;-87
2023/03/24 05:23:51;;;;;;;2.50;1.70;;;17.90;54.60;;;;;;4747435;30;20304;-88
2023/03/24 05:26:25;;;;;;;2.10;1.60;;;18.00;54.80;;;;;;4748517;30;20227;-87
2023/03/24 05:28:56;;;;;;;2.97;1.95;;;17.90;54.70;;;;;;4756189;30;20187;-87
2023/03/24 05:31:26;;;;;;;2.20;1.70;;;18.00;54.70;;;;;;4780783;30;20212;-87
2023/03/24 05:34:12;;;;;;;2.42;1.80;;;18.00;54.80;;;;;;4783433;30;20191;-87
2023/03/24 05:36:44;;;;;;;3.80;1.60;;;18.00;54.90;;;;;;4782665;30;20196;-87
2023/03/24 05:39:13;;;;;;;2.65;1.73;;;18.00;54.90;;;;;;4739346;30;20184;-87
2023/03/24 05:41:39;;;;;;;2.78;1.58;;;18.00;54.80;;;;;;4755093;30;20192;-87
2023/03/24 05:44:10;;;;;;;2.13;1.80;;;18.00;54.80;;;;;;4733895;30;20190;-87
2023/03/24 05:46:51;;;;;;;2.03;1.60;;;18.00;54.90;;;;;;4749063;30;20213;-87
2023/03/24 05:49:23;;;;;;;2.22;1.70;;;18.00;54.90;;;;;;4744498;30;20209;-88
2023/03/24 05:51:50;;;;;;;2.40;1.75;;;18.00;55.00;;;;;;4717008;30;20198;-87
2023/03/24 05:54:25;;;;;;;2.03;1.42;;;17.90;54.80;;;;;;4730901;30;20198;-87
2023/03/24 05:56:55;;;;;;;2.05;1.77;;;18.00;55.10;;;;;;4730091;30;20286;-86
2023/03/24 05:59:26;;;;;;;2.45;1.75;;;18.00;55.00;;;;;;4716481;30;20186;-87
2023/03/24 06:01:57;;;;;;;2.20;1.80;;;18.00;54.90;;;;;;4757356;30;20191;-86
2023/03/24 06:04:56;;;;;;;1.60;1.38;;;18.00;54.80;;;;;;4736197;30;20250;-86
2023/03/24 06:07:29;;;;;;;3.40;1.90;;;18.00;54.90;;;;;;4750182;30;20188;-87
2023/03/24 06:10:01;;;;;;;2.00;1.55;;;18.00;54.80;;;;;;4753235;30;20249;-86
2023/03/24 06:12:37;;;;;;;2.17;1.60;;;18.00;55.00;;;;;;4767686;30;20214;-84
2023/03/24 06:15:06;;;;;;;2.08;1.70;;;18.00;55.00;;;;;;4749665;30;20207;-87
2023/03/24 06:17:44;;;;;;;2.47;1.60;;;17.90;54.80;;;;;;4750649;30;20197;-87
2023/03/24 06:20:17;;;;;;;1.80;1.63;;;18.00;54.90;;;;;;4761675;30;20204;-86
2023/03/24 06:22:48;;;;;;;2.78;1.85;;;17.90;54.70;;;;;;4764999;30;20193;-86
2023/03/24 06:25:20;;;;;;;2.85;1.60;;;18.00;54.80;;;;;;4734165;30;20284;-87
2023/03/24 06:28:02;;;;;;;3.35;1.90;;;18.00;54.70;;;;;;4736463;30;20228;-86
2023/03/24 06:30:48;;;;;;;2.40;1.83;;;18.00;54.70;;;;;;4731810;30;20189;-87
2023/03/24 06:33:34;;;;;;;2.50;1.90;;;17.90;54.60;;;;;;4713011;30;20206;-86
2023/03/24 06:36:24;;;;;;;2.10;1.67;;;18.00;54.70;;;;;;4715828;30;20334;-87
2023/03/24 06:39:25;;;;;;;3.85;1.77;;;17.90;54.80;;;;;;4672814;30;20326;-88
2023/03/24 06:42:01;;;;;;;2.22;1.60;;;18.00;54.90;;;;;;4639022;30;20208;-88
2023/03/24 06:44:38;;;;;;;2.92;1.50;;;18.00;55.00;;;;;;4641172;30;20204;-87
2023/03/24 06:47:15;;;;;;;2.60;1.52;;;18.00;54.70;;;;;;4628006;31;20193;-87
2023/03/24 06:49:48;;;;;;;4.70;1.83;;;18.00;54.90;;;;;;4644144;30;20631;-87
2023/03/24 06:52:21;;;;;;;2.67;1.75;;;18.00;55.00;;;;;;4643078;31;20204;-87
2023/03/24 06:54:52;;;;;;;3.50;1.65;;;18.00;54.40;;;;;;4661019;30;20211;-87
2023/03/24 06:57:32;;;;;;;2.38;1.80;;;18.00;54.60;;;;;;4658784;30;20612;-87
2023/03/24 07:00:09;;;;;;;2.53;1.60;;;18.00;54.90;;;;;;4641425;31;20695;-87
2023/03/24 07:02:41;;;;;;;1.58;1.42;;;18.00;54.90;;;;;;4711672;30;20198;-87
2023/03/24 07:05:09;;;;;;;3.92;1.90;;;18.00;54.80;;;;;;4659298;30;20311;-88
2023/03/24 07:07:36;;;;;;;2.70;1.60;;;18.00;54.60;;;;;;4626279;30;20273;-86
2023/03/24 07:10:06;;;;;;;2.15;1.42;;;18.00;54.70;;;;;;4644733;30;20196;-86
2023/03/24 07:12:43;;;;;;;8.27;1.77;;;18.00;54.50;;;;;;4666302;30;20184;-86
2023/03/24 07:15:10;;;;;;;1.90;1.60;;;18.00;54.70;;;;;;4666006;30;20750;-86
2023/03/24 07:17:36;;;;;;;5.47;1.85;;;18.00;54.50;;;;;;4665940;30;20607;-86
2023/03/24 07:20:46;;;;;;;1.95;1.40;;;18.10;54.50;;;;;;4661818;30;20201;-85
2023/03/24 07:23:31;;;;;;;;;;;;;;;;;;;;;
2023/03/24 07:26:05;;;;;;;2.90;1.60;;;18.10;54.70;;;;;;4638113;30;20609;-86
2023/03/24 07:28:37;;;;;;;3.65;1.60;;;18.00;54.40;;;;;;4649757;30;20283;-86
2023/03/24 07:31:09;;;;;;;2.75;1.58;;;18.10;54.50;;;;;;4635334;30;20218;-85
2023/03/24 07:33:44;;;;;;;3.55;1.98;;;18.10;54.60;;;;;;4666316;30;20234;-86
2023/03/24 07:36:15;;;;;;;3.42;1.65;;;18.10;55.20;;;;;;4728884;30;20236;-86
2023/03/24 07:38:50;;;;;;;1.73;1.58;;;18.00;54.50;;;;;;4721469;30;20193;-86
2023/03/24 07:41:23;;;;;;;3.05;1.27;;;18.10;54.00;;;;;;4722207;30;20247;-86
2023/03/24 07:43:58;;;;;;;2.40;1.45;;;18.30;53.80;;;;;;4722223;30;20248;-86
2023/03/24 07:46:30;;;;;;;2.05;1.60;;;18.40;53.70;;;;;;4739714;30;20227;-86
2023/03/24 07:49:01;;;;;;;2.08;1.63;;;18.40;53.50;;;;;;4724849;30;20197;-86
2023/03/24 07:51:31;;;;;;;3.47;1.63;;;18.30;53.60;;;;;;4710337;30;20193;-86
2023/03/24 07:54:05;;;;;;;1.77;1.27;;;18.40;53.40;;;;;;4773509;29;20705;-86
2023/03/24 07:56:54;;;;;;;1.92;1.40;;;18.40;53.40;;;;;;4814703;29;20193;-86
2023/03/24 07:59:33;;;;;;;3.00;1.55;;;18.40;53.60;;;;;;4842005;29;20667;-86
2023/03/24 08:02:02;;;;;;;2.22;1.20;;;18.40;53.50;;;;;;4793368;29;20244;-86
2023/03/24 08:04:34;;;;;;;2.72;1.50;;;18.40;53.20;;;;;;4764534;29;20608;-86
2023/03/24 08:07:12;;;;;;;2.28;1.70;;;18.40;53.40;;;;;;4764026;29;20183;-86
2023/03/24 08:09:42;;;;;;;1.90;1.42;;;18.40;53.50;;;;;;4766254;29;20190;-86
2023/03/24 08:12:11;;;;;;;1.52;1.30;;;18.40;53.50;;;;;;4777892;29;20240;-86
2023/03/24 08:14:52;;;;;;;1.70;1.50;;;18.40;53.20;;;;;;4763695;29;20694;-86
2023/03/24 08:17:25;;;;;;;2.35;1.40;;;18.30;53.20;;;;;;4794941;29;20262;-86
2023/03/24 08:19:57;;;;;;;1.42;1.05;;;18.30;53.10;;;;;;4760968;30;20260;-86
2023/03/24 08:22:36;;;;;;;2.33;1.30;;;18.50;53.00;;;;;;4747012;30;20184;-86
2023/03/24 08:25:04;;;;;;;1.38;1.27;;;18.50;53.10;;;;;;4747343;30;20211;-86
2023/03/24 08:27:43;;;;;;;1.75;1.45;;;18.50;53.00;;;;;;4743695;30;20188;-86
2023/03/24 08:30:19;;;;;;;1.65;1.30;;;18.50;53.10;;;;;;4729415;30;20192;-86
2023/03/24 08:32:58;;;;;;;1.45;1.25;;;18.50;53.10;;;;;;4757504;29;20273;-86
2023/03/24 08:35:50;;;;;;;2.83;1.20;;;18.40;53.00;;;;;;4745029;30;20243;-85
2023/03/24 08:38:37;;;;;;;2.03;1.50;;;18.40;53.10;;;;;;4718511;30;20202;-85
2023/03/24 08:41:58;;;;;;;1.95;1.30;;;18.50;53.30;;;;;;4720872;30;20199;-84
2023/03/24 08:47:55;;;;;;;1.20;1.10;;;18.40;53.20;;;;;;4653284;30;20187;-86
2023/03/24 08:50:31;;;;;;;1.65;1.30;;;18.40;53.20;;;;;;4619317;31;20222;-85
2023/03/24 08:53:10;;;;;;;1.60;1.20;;;18.40;53.00;;;;;;4605882;31;20198;-86
2023/03/24 08:55:46;;;;;;;1.48;1.30;;;18.50;52.90;;;;;;4619062;31;20308;-86
2023/03/24 09:01:46;;;;;;;1.88;1.10;;;18.50;52.80;;;;;;4653604;30;20234;-86
2023/03/24 09:04:22;;;;;;;1.50;1.10;;;18.40;53.10;;;;;;4625935;30;20232;-85
2023/03/24 09:06:59;;;;;;;2.05;1.20;;;18.40;52.80;;;;;;4638464;30;20203;-86
2023/03/24 09:09:28;;;;;;;1.98;1.30;;;18.40;52.70;;;;;;4683011;30;20190;-86
2023/03/24 09:12:33;;;;;;;10.48;1.83;;;18.40;53.10;;;;;;4722391;30;20174;-85
2023/03/24 09:15:30;;;;;;;2.92;1.45;;;18.50;53.00;;;;;;4708337;30;20201;-86
2023/03/24 09:18:05;;;;;;;4.25;1.55;;;18.60;52.90;;;;;;4694297;30;20194;-86
2023/03/24 09:20:39;;;;;;;9.32;1.60;;;18.50;52.90;;;;;;4676560;30;20248;-87
2023/03/24 09:23:54;;;;;;;3.47;1.35;;;18.50;52.70;;;;;;4713454;30;20198;-87
2023/03/24 09:26:33;;;;;;;13.02;1.75;;;18.50;53.00;;;;;;4711424;30;20274;-86
2023/03/24 09:29:35;;;;;;;;;;;;;;;;;;;;;
2023/03/24 09:33:00;;;;;;;2.00;0.90;;;18.50;52.90;;;;;;4701963;30;20217;-86
2023/03/24 09:36:26;;;;;;;4.70;1.15;;;18.50;52.70;;;;;;4638878;30;20276;-87
2023/03/24 09:39:36;;;;;;;4.97;1.15;;;18.50;52.60;;;;;;4579148;31;20200;-86
2023/03/24 09:42:04;;;;;;;7.68;1.38;;;18.50;52.60;;;;;;4566124;31;20200;-86
2023/03/24 09:44:46;;;;;;;6.55;1.30;;;18.50;53.10;;;;;;4579014;31;20196;-86
2023/03/24 09:47:35;;;;;;;17.23;1.75;;;18.50;52.90;;;;;;4592526;31;20270;-85
2023/03/24 09:50:27;;;;;;;8.50;1.27;;;18.50;52.80;;;;;;4592287;31;20234;-85
2023/03/24 09:53:09;;;;;;;4.38;1.63;;;18.50;52.70;;;;;;4556081;31;20226;-85
2023/03/24 09:55:57;;;;;;;10.05;1.60;;;18.50;52.80;;;;;;4594358;31;20335;-85
2023/03/24 09:58:35;;;;;;;3.75;1.70;;;18.50;53.00;;;;;;4548580;31;20208;-85
2023/03/24 10:01:07;;;;;;;4.78;1.20;;;18.50;53.30;;;;;;4592353;31;20229;-86
2023/03/24 10:03:33;;;;;;;11.45;1.48;;;18.40;53.20;;;;;;4609153;31;20194;-85
2023/03/24 10:06:11;;;;;;;6.05;1.40;;;18.50;53.00;;;;;;4608558;31;20265;-85
2023/03/24 10:08:56;;;;;;;3.38;1.13;;;18.50;53.30;;;;;;4581452;31;20277;-85
2023/03/24 10:11:33;;;;;;;10.30;1.40;;;18.50;53.20;;;;;;4581620;31;20209;-85
2023/03/24 10:14:25;;;;;;;5.43;1.35;;;18.50;52.90;;;;;;4644406;30;20195;-85
2023/03/24 10:17:01;;;;;;;6.65;1.40;;;18.50;52.70;;;;;;4692790;30;20344;-87
2023/03/24 10:19:40;;;;;;;10.05;1.50;;;18.60;52.70;;;;;;4681921;30;20199;-85
2023/03/24 10:22:32;;;;;;;3.65;1.15;;;18.50;52.60;;;;;;4679549;30;20218;-85
2023/03/24 10:25:10;;;;;;;2.03;0.95;;;18.40;52.70;;;;;;4694316;30;20290;-85
2023/03/24 10:27:41;;;;;;;5.07;1.35;;;18.60;52.50;;;;;;4688658;30;20206;-85
2023/03/24 10:30:28;;;;;;;5.57;1.25;;;18.60;52.50;;;;;;4695946;30;20256;-85
2023/03/24 10:32:55;;;;;;;3.30;1.20;;;18.60;52.70;;;;;;4681500;30;20283;-85
2023/03/24 10:35:24;;;;;;;4.97;0.90;;;18.60;52.50;;;;;;4696103;30;20227;-85
2023/03/24 10:37:53;;;;;;;2.85;1.05;;;18.60;52.40;;;;;;4695901;30;20195;-84
2023/03/24 10:40:25;;;;;;;3.75;1.02;;;18.60;52.50;;;;;;4711125;30;20205;-85
2023/03/24 10:42:55;;;;;;;3.45;1.38;;;18.60;52.50;;;;;;4696603;30;20190;-83
2023/03/24 10:45:27;;;;;;;1.95;1.10;;;18.60;52.40;;;;;;4712197;30;20266;-85
2023/03/24 10:47:56;;;;;;;3.35;1.10;;;18.60;52.60;;;;;;4718486;30;20197;-85
2023/03/24 10:50:24;;;;;;;1.30;0.90;;;18.60;52.40;;;;;;4742255;30;20560;-84
2023/03/24 10:52:57;;;;;;;3.33;1.10;;;18.60;52.50;;;;;;4739801;30;20194;-85
2023/03/24 10:55:30;;;;;;;3.88;1.10;;;18.60;52.40;;;;;;4724988;30;20204;-85
2023/03/24 10:57:58;;;;;;;1.40;0.98;;;18.60;52.50;;;;;;4774644;30;20203;-85
2023/03/24 11:00:28;;;;;;;2.75;1.10;;;18.60;52.50;;;;;;4782360;29;20191;-85
2023/03/24 11:02:59;;;;;;;1.05;0.73;;;18.60;52.40;;;;;;4797967;29;20190;-85
2023/03/24 11:05:29;;;;;;;1.15;0.90;;;18.50;52.30;;;;;;4813834;29;20210;-84
2023/03/24 11:07:58;;;;;;;3.13;0.90;;;18.60;52.20;;;;;;4799894;29;20216;-85
2023/03/24 11:10:26;;;;;;;2.55;0.90;;;18.60;52.30;;;;;;4801508;29;20163;-85
2023/03/24 11:13:03;;;;;;;2.03;0.88;;;18.60;52.20;;;;;;4816366;29;20221;-84
2023/03/24 11:15:31;;;;;;;1.30;0.98;;;18.60;52.30;;;;;;4830401;29;20170;-84
2023/03/24 11:18:03;;;;;;;1.73;1.00;;;18.60;52.30;;;;;;4814368;29;20253;-84
2023/03/24 11:20:37;;;;;;;1.30;0.80;;;18.60;52.30;;;;;;4794259;30;20278;-84
2023/03/24 11:23:26;;;;;;;3.17;1.10;;;18.60;52.10;;;;;;4795371;30;20198;-83
2023/03/24 11:26:13;;;;;;;3.55;1.05;;;18.60;52.20;;;;;;4781135;30;20222;-84
2023/03/24 11:28:46;;;;;;;1.85;1.10;;;18.60;52.10;;;;;;4765617;30;20191;-84
2023/03/24 11:31:23;;;;;;;2.22;0.90;;;18.60;51.90;;;;;;4766340;30;20183;-84
2023/03/24 11:33:56;;;;;;;2.60;0.85;;;18.60;52.00;;;;;;4797541;29;20168;-84
2023/03/24 11:36:42;;;;;;;1.95;1.00;;;18.60;51.90;;;;;;4811187;29;20314;-86
2023/03/24 11:39:13;;;;;;;4.13;1.05;;;18.60;52.40;;;;;;4785024;29;20247;-86
2023/03/24 11:41:45;;;;;;;2.92;1.02;;;18.60;52.20;;;;;;4783512;29;20271;-85
2023/03/24 11:44:23;;;;;;;2.08;1.10;;;18.60;52.00;;;;;;4784790;29;20524;-85
2023/03/24 11:46:52;;;;;;;1.25;0.90;;;18.60;52.30;;;;;;4794883;29;20578;-85
2023/03/24 11:49:20;;;;;;;2.88;0.95;;;18.60;52.00;;;;;;4780967;29;20179;-86
2023/03/24 11:51:46;;;;;;;2.92;1.00;;;18.60;51.90;;;;;;4804746;29;20189;-86
2023/03/24 11:54:13;;;;;;;1.75;0.82;;;18.60;51.90;;;;;;4833316;29;20532;-86
2023/03/24 11:56:41;;;;;;;4.40;1.23;;;18.60;52.00;;;;;;4824427;29;20177;-85
2023/03/24 11:59:38;;;;;;;2.53;0.85;;;18.60;52.20;;;;;;4834939;29;20181;-85
2023/03/24 12:02:22;;;;;;;2.22;1.00;;;18.60;52.00;;;;;;4821310;29;20192;-87
2023/03/24 12:05:16;;;;;;;1.50;1.00;;;18.60;52.00;;;;;;4844745;29;20190;-87
2023/03/24 12:08:16;;;;;;;1.63;0.93;;;18.60;52.30;;;;;;4842517;29;20181;-86
2023/03/24 12:11:16;;;;;;;1.25;1.00;;;18.60;52.20;;;;;;4853581;29;20165;-86
2023/03/24 12:13:56;;;;;;;1.30;0.80;;;18.60;52.10;;;;;;4856570;29;20187;-86
2023/03/24 12:16:52;;;;;;;1.23;1.00;;;18.60;52.40;;;;;;4827123;29;20187;-86
2023/03/24 12:19:47;;;;;;;1.15;0.93;;;18.60;52.30;;;;;;4799515;29;20186;-85
2023/03/24 12:22:40;;;;;;;3.40;1.10;;;18.60;52.40;;;;;;4748152;30;20210;-84
2023/03/24 12:25:36;;;;;;;1.35;0.90;;;18.60;52.50;;;;;;4744913;30;20604;-83
2023/03/24 12:28:16;;;;;;;4.03;1.20;;;18.60;52.40;;;;;;4747124;30;20299;-83
2023/03/24 12:30:51;;;;;;;1.88;1.00;;;18.60;52.30;;;;;;4763304;30;20261;-83
2023/03/24 12:33:27;;;;;;;2.83;1.13;;;18.60;51.90;;;;;;4744698;30;20329;-83
2023/03/24 12:36:15;;;;;;;1.40;0.90;;;18.60;51.80;;;;;;4753569;30;20243;-84
2023/03/24 12:38:57;;;;;;;3.47;1.13;;;18.70;51.90;;;;;;4756254;30;20223;-83
2023/03/24 12:41:49;;;;;;;2.08;1.05;;;18.70;51.90;;;;;;4757573;30;20187;-85
2023/03/24 12:44:42;;;;;;;2.83;1.17;;;18.70;52.10;;;;;;4757749;30;20323;-83
2023/03/24 12:47:45;;;;;;;1.15;0.90;;;18.60;51.90;;;;;;4770390;30;20207;-83
2023/03/24 12:50:35;;;;;;;0.80;0.73;;;18.70;52.00;;;;;;4824680;29;20218;-86
2023/03/24 12:53:21;;;;;;;1.60;1.00;;;18.60;52.10;;;;;;4796569;29;20198;-85
2023/03/24 12:55:59;;;;;;;1.63;1.00;;;18.60;52.00;;;;;;4839142;29;20153;-84
2023/03/24 12:58:44;;;;;;;1.52;0.82;;;18.60;52.00;;;;;;4838191;29;20154;-85
2023/03/24 13:01:28;;;;;;;3.25;1.05;;;18.60;52.10;;;;;;4804716;29;20189;-85
2023/03/24 13:03:59;;;;;;;1.27;0.77;;;18.60;52.00;;;;;;4799461;29;20701;-85
2023/03/24 13:06:32;;;;;;;1.85;0.95;;;18.50;51.90;;;;;;4833789;29;20209;-83
2023/03/24 13:09:06;;;;;;;2.60;0.90;;;18.60;52.00;;;;;;4807701;29;20721;-84
2023/03/24 13:11:55;;;;;;;2.22;0.98;;;18.60;52.00;;;;;;4830458;29;20203;-84
2023/03/24 13:14:26;;;;;;;2.58;1.20;;;18.60;51.90;;;;;;4852867;29;20173;-84
2023/03/24 13:16:54;;;;;;;1.92;1.02;;;18.60;52.50;;;;;;4813746;29;20566;-84
2023/03/24 13:19:22;;;;;;;1.98;1.15;;;18.60;52.00;;;;;;4832488;29;20154;-85
2023/03/24 13:21:49;;;;;;;2.45;1.00;;;18.60;51.80;;;;;;4804787;29;20189;-85
2023/03/24 13:24:15;;;;;;;0.95;0.75;;;18.60;52.10;;;;;;4821861;29;20161;-84
2023/03/24 13:27:04;;;;;;;1.30;1.00;;;18.60;51.80;;;;;;4822703;29;20193;-85
2023/03/24 13:30:00;;;;;;;1.50;0.98;;;18.60;51.90;;;;;;4825368;29;20169;-86
2023/03/24 13:32:34;;;;;;;0.77;0.70;;;18.60;51.70;;;;;;4838469;29;20200;-86
2023/03/24 13:35:22;;;;;;;2.42;0.95;;;18.60;51.80;;;;;;4833259;29;20415;-83
2023/03/24 13:37:53;;;;;;;1.00;0.80;;;18.60;51.90;;;;;;4852731;29;20194;-86
2023/03/24 13:40:27;;;;;;;2.45;1.10;;;18.60;51.90;;;;;;4837830;29;20165;-84
2023/03/24 13:43:15;;;;;;;1.75;1.10;;;18.60;51.90;;;;;;4834628;29;20200;-85
2023/03/24 13:45:50;;;;;;;1.38;0.85;;;18.70;52.00;;;;;;4822171;29;20285;-84
2023/03/24 13:48:22;;;;;;;1.15;0.80;;;18.60;51.80;;;;;;4807151;29;20332;-84
2023/03/24 13:51:07;;;;;;;1.10;0.98;;;18.60;51.90;;;;;;4837425;29;20169;-85
2023/03/24 13:53:38;;;;;;;2.33;1.02;;;18.60;51.90;;;;;;4837179;29;20189;-84
2023/03/24 13:56:08;;;;;;;1.23;1.00;;;18.60;51.80;;;;;;4817649;29;20237;-85